sensor_id;sensor_type;location;lat;lon;timestamp;P1;durP1;ratioP1;P2;durP2;ratioP2
73515;SDS011;61763;51.416;5.442;2023-06-22T00:01:58;3.10;;;1.50;;
73515;SDS011;61763;51.416;5.442;2023-06-22T00:04:25;4.78;;;1.60;;
73515;SDS011;61763;51.416;5.442;2023-06-22T00:06:51;4.22;;;2.15;;
73515;SDS011;61763;51.416;5.442;2023-06-22T00:09:17;5.68;;;2.45;;
73515;SDS011;61763;51.416;5.442;2023-06-22T00:11:42;5.38;;;2.10;;
73515;SDS011;61763;51.416;5.442;2023-06-22T00:14:08;6.78;;;2.70;;
73515;SDS011;61763;51.416;5.442;2023-06-22T00:16:33;6.03;;;2.60;;
73515;SDS011;61763;51.416;5.442;2023-06-22T00:18:59;5.35;;;3.47;;
73515;SDS011;61763;51.416;5.442;2023-06-22T00:21:25;4.88;;;2.45;;
73515;SDS011;61763;51.416;5.442;2023-06-22T00:23:54;7.90;;;3.22;;
73515;SDS011;61763;51.416;5.442;2023-06-22T00:26:20;7.57;;;2.90;;
73515;SDS011;61763;51.416;5.442;2023-06-22T00:28:46;7.50;;;2.95;;
73515;SDS011;61763;51.416;5.442;2023-06-22T00:31:12;6.88;;;3.38;;
73515;SDS011;61763;51.416;5.442;2023-06-22T00:33:38;7.57;;;3.63;;
73515;SDS011;61763;51.416;5.442;2023-06-22T00:36:04;6.72;;;4.07;;
73515;SDS011;61763;51.416;5.442;2023-06-22T00:38:31;7.70;;;4.82;;
73515;SDS011;61763;51.416;5.442;2023-06-22T00:40:56;8.45;;;4.68;;
73515;SDS011;61763;51.416;5.442;2023-06-22T00:43:22;10.70;;;5.68;;
73515;SDS011;61763;51.416;5.442;2023-06-22T00:45:47;10.40;;;5.25;;
73515;SDS011;61763;51.416;5.442;2023-06-22T00:48:13;9.70;;;4.60;;
73515;SDS011;61763;51.416;5.442;2023-06-22T00:50:39;11.68;;;5.90;;
73515;SDS011;61763;51.416;5.442;2023-06-22T00:53:06;10.43;;;6.25;;
73515;SDS011;61763;51.416;5.442;2023-06-22T00:55:43;9.65;;;5.55;;
73515;SDS011;61763;51.416;5.442;2023-06-22T00:58:10;9.00;;;6.18;;
73515;SDS011;61763;51.416;5.442;2023-06-22T01:00:37;9.27;;;5.43;;
73515;SDS011;61763;51.416;5.442;2023-06-22T01:03:03;11.82;;;5.78;;
73515;SDS011;61763;51.416;5.442;2023-06-22T01:05:29;12.93;;;6.35;;
73515;SDS011;61763;51.416;5.442;2023-06-22T01:10:41;11.25;;;6.30;;
73515;SDS011;61763;51.416;5.442;2023-06-22T01:13:35;10.00;;;5.80;;
73515;SDS011;61763;51.416;5.442;2023-06-22T01:16:11;10.25;;;6.25;;
73515;SDS011;61763;51.416;5.442;2023-06-22T01:18:42;10.52;;;5.82;;
73515;SDS011;61763;51.416;5.442;2023-06-22T01:21:11;9.00;;;5.38;;
73515;SDS011;61763;51.416;5.442;2023-06-22T01:23:47;12.15;;;6.30;;
73515;SDS011;61763;51.416;5.442;2023-06-22T01:26:22;12.52;;;6.55;;
73515;SDS011;61763;51.416;5.442;2023-06-22T01:28:55;10.00;;;5.60;;
73515;SDS011;61763;51.416;5.442;2023-06-22T01:31:24;9.48;;;5.45;;
73515;SDS011;61763;51.416;5.442;2023-06-22T01:33:52;11.07;;;6.68;;
73515;SDS011;61763;51.416;5.442;2023-06-22T01:36:20;9.15;;;5.32;;
73515;SDS011;61763;51.416;5.442;2023-06-22T01:38:46;11.32;;;6.20;;
73515;SDS011;61763;51.416;5.442;2023-06-22T01:41:13;9.25;;;5.90;;
73515;SDS011;61763;51.416;5.442;2023-06-22T01:43:39;8.95;;;4.85;;
73515;SDS011;61763;51.416;5.442;2023-06-22T01:46:06;10.48;;;6.25;;
73515;SDS011;61763;51.416;5.442;2023-06-22T01:48:32;10.40;;;6.10;;
73515;SDS011;61763;51.416;5.442;2023-06-22T01:50:58;10.60;;;5.90;;
73515;SDS011;61763;51.416;5.442;2023-06-22T01:53:24;11.15;;;5.93;;
73515;SDS011;61763;51.416;5.442;2023-06-22T01:55:50;12.27;;;5.72;;
73515;SDS011;61763;51.416;5.442;2023-06-22T01:58:16;10.15;;;6.07;;
73515;SDS011;61763;51.416;5.442;2023-06-22T02:00:44;12.57;;;6.40;;
73515;SDS011;61763;51.416;5.442;2023-06-22T02:03:19;10.23;;;6.35;;
73515;SDS011;61763;51.416;5.442;2023-06-22T02:05:52;11.52;;;6.90;;
73515;SDS011;61763;51.416;5.442;2023-06-22T02:08:25;11.88;;;5.63;;
73515;SDS011;61763;51.416;5.442;2023-06-22T02:11:00;12.43;;;6.78;;
73515;SDS011;61763;51.416;5.442;2023-06-22T02:13:27;9.73;;;5.90;;
73515;SDS011;61763;51.416;5.442;2023-06-22T02:15:53;9.70;;;6.55;;
73515;SDS011;61763;51.416;5.442;2023-06-22T02:18:19;12.32;;;5.88;;
73515;SDS011;61763;51.416;5.442;2023-06-22T02:20:45;12.48;;;6.35;;
73515;SDS011;61763;51.416;5.442;2023-06-22T02:23:11;12.73;;;6.38;;
73515;SDS011;61763;51.416;5.442;2023-06-22T02:25:36;9.68;;;6.50;;
73515;SDS011;61763;51.416;5.442;2023-06-22T02:28:02;10.65;;;6.32;;
73515;SDS011;61763;51.416;5.442;2023-06-22T02:30:28;10.10;;;5.53;;
73515;SDS011;61763;51.416;5.442;2023-06-22T02:32:53;12.23;;;6.38;;
73515;SDS011;61763;51.416;5.442;2023-06-22T02:35:24;10.77;;;6.30;;
73515;SDS011;61763;51.416;5.442;2023-06-22T02:37:52;11.88;;;6.55;;
73515;SDS011;61763;51.416;5.442;2023-06-22T02:40:17;12.45;;;7.05;;
73515;SDS011;61763;51.416;5.442;2023-06-22T02:42:43;10.20;;;6.72;;
73515;SDS011;61763;51.416;5.442;2023-06-22T02:45:08;16.17;;;7.78;;
73515;SDS011;61763;51.416;5.442;2023-06-22T02:47:35;14.52;;;7.50;;
73515;SDS011;61763;51.416;5.442;2023-06-22T02:50:00;12.43;;;6.60;;
73515;SDS011;61763;51.416;5.442;2023-06-22T02:52:26;12.55;;;6.95;;
73515;SDS011;61763;51.416;5.442;2023-06-22T02:54:52;11.98;;;6.70;;
73515;SDS011;61763;51.416;5.442;2023-06-22T02:57:17;11.07;;;7.28;;
73515;SDS011;61763;51.416;5.442;2023-06-22T02:59:42;13.65;;;7.97;;
73515;SDS011;61763;51.416;5.442;2023-06-22T03:02:08;13.07;;;7.28;;
73515;SDS011;61763;51.416;5.442;2023-06-22T03:04:34;12.68;;;7.25;;
73515;SDS011;61763;51.416;5.442;2023-06-22T03:07:00;12.65;;;7.55;;
73515;SDS011;61763;51.416;5.442;2023-06-22T03:09:27;11.88;;;7.50;;
73515;SDS011;61763;51.416;5.442;2023-06-22T03:11:56;12.10;;;7.45;;
73515;SDS011;61763;51.416;5.442;2023-06-22T03:14:21;13.20;;;7.55;;
73515;SDS011;61763;51.416;5.442;2023-06-22T03:16:47;11.82;;;8.07;;
73515;SDS011;61763;51.416;5.442;2023-06-22T03:19:12;15.35;;;7.80;;
73515;SDS011;61763;51.416;5.442;2023-06-22T03:21:39;14.88;;;7.70;;
73515;SDS011;61763;51.416;5.442;2023-06-22T03:24:05;15.18;;;7.80;;
73515;SDS011;61763;51.416;5.442;2023-06-22T03:26:31;14.05;;;7.80;;
73515;SDS011;61763;51.416;5.442;2023-06-22T03:28:57;13.65;;;7.82;;
73515;SDS011;61763;51.416;5.442;2023-06-22T03:31:22;11.07;;;7.25;;
73515;SDS011;61763;51.416;5.442;2023-06-22T03:33:48;14.50;;;9.10;;
73515;SDS011;61763;51.416;5.442;2023-06-22T03:36:15;13.68;;;8.10;;
73515;SDS011;61763;51.416;5.442;2023-06-22T03:38:44;13.43;;;8.02;;
73515;SDS011;61763;51.416;5.442;2023-06-22T03:41:11;13.07;;;8.30;;
73515;SDS011;61763;51.416;5.442;2023-06-22T03:43:36;14.82;;;9.25;;
73515;SDS011;61763;51.416;5.442;2023-06-22T03:46:02;14.18;;;8.02;;
73515;SDS011;61763;51.416;5.442;2023-06-22T03:48:28;15.60;;;8.25;;
73515;SDS011;61763;51.416;5.442;2023-06-22T03:50:54;13.40;;;8.93;;
73515;SDS011;61763;51.416;5.442;2023-06-22T03:53:21;13.80;;;8.15;;
73515;SDS011;61763;51.416;5.442;2023-06-22T03:55:49;16.52;;;9.45;;
73515;SDS011;61763;51.416;5.442;2023-06-22T03:58:16;14.63;;;8.50;;
73515;SDS011;61763;51.416;5.442;2023-06-22T04:00:43;14.35;;;8.27;;
73515;SDS011;61763;51.416;5.442;2023-06-22T04:03:10;17.50;;;9.77;;
73515;SDS011;61763;51.416;5.442;2023-06-22T04:05:37;15.70;;;8.85;;
73515;SDS011;61763;51.416;5.442;2023-06-22T04:08:03;14.93;;;8.80;;
73515;SDS011;61763;51.416;5.442;2023-06-22T04:10:29;15.07;;;9.23;;
73515;SDS011;61763;51.416;5.442;2023-06-22T04:12:55;12.13;;;7.72;;
73515;SDS011;61763;51.416;5.442;2023-06-22T04:15:21;14.82;;;9.07;;
73515;SDS011;61763;51.416;5.442;2023-06-22T04:17:46;11.18;;;7.22;;
73515;SDS011;61763;51.416;5.442;2023-06-22T04:20:11;13.93;;;8.37;;
73515;SDS011;61763;51.416;5.442;2023-06-22T04:22:37;13.43;;;8.52;;
73515;SDS011;61763;51.416;5.442;2023-06-22T04:25:03;12.07;;;7.97;;
73515;SDS011;61763;51.416;5.442;2023-06-22T04:27:28;14.70;;;8.05;;
73515;SDS011;61763;51.416;5.442;2023-06-22T04:29:54;14.98;;;8.55;;
73515;SDS011;61763;51.416;5.442;2023-06-22T04:32:19;12.25;;;8.38;;
73515;SDS011;61763;51.416;5.442;2023-06-22T04:34:45;15.43;;;8.70;;
73515;SDS011;61763;51.416;5.442;2023-06-22T04:37:10;14.88;;;8.73;;
73515;SDS011;61763;51.416;5.442;2023-06-22T04:39:40;14.85;;;8.90;;
73515;SDS011;61763;51.416;5.442;2023-06-22T04:42:06;13.45;;;8.85;;
73515;SDS011;61763;51.416;5.442;2023-06-22T04:44:31;16.90;;;9.95;;
73515;SDS011;61763;51.416;5.442;2023-06-22T04:46:57;12.75;;;8.65;;
73515;SDS011;61763;51.416;5.442;2023-06-22T04:49:28;16.80;;;10.43;;
73515;SDS011;61763;51.416;5.442;2023-06-22T04:51:59;19.27;;;11.27;;
73515;SDS011;61763;51.416;5.442;2023-06-22T04:54:26;16.98;;;10.48;;
73515;SDS011;61763;51.416;5.442;2023-06-22T04:56:51;18.08;;;10.95;;
73515;SDS011;61763;51.416;5.442;2023-06-22T04:59:23;15.48;;;11.25;;
73515;SDS011;61763;51.416;5.442;2023-06-22T05:01:54;15.63;;;10.70;;
73515;SDS011;61763;51.416;5.442;2023-06-22T05:04:21;18.33;;;12.10;;
73515;SDS011;61763;51.416;5.442;2023-06-22T05:06:50;18.70;;;12.15;;
73515;SDS011;61763;51.416;5.442;2023-06-22T05:09:17;15.40;;;10.68;;
73515;SDS011;61763;51.416;5.442;2023-06-22T05:11:43;19.65;;;12.65;;
73515;SDS011;61763;51.416;5.442;2023-06-22T05:14:09;16.83;;;11.40;;
73515;SDS011;61763;51.416;5.442;2023-06-22T05:16:36;19.00;;;12.32;;
73515;SDS011;61763;51.416;5.442;2023-06-22T05:19:02;18.33;;;11.25;;
73515;SDS011;61763;51.416;5.442;2023-06-22T05:21:29;19.95;;;12.43;;
73515;SDS011;61763;51.416;5.442;2023-06-22T05:23:56;18.27;;;11.85;;
73515;SDS011;61763;51.416;5.442;2023-06-22T05:26:25;17.63;;;11.57;;
73515;SDS011;61763;51.416;5.442;2023-06-22T05:28:51;18.02;;;12.18;;
73515;SDS011;61763;51.416;5.442;2023-06-22T05:31:18;19.38;;;11.20;;
73515;SDS011;61763;51.416;5.442;2023-06-22T05:33:44;19.83;;;11.95;;
73515;SDS011;61763;51.416;5.442;2023-06-22T05:36:11;20.95;;;10.88;;
73515;SDS011;61763;51.416;5.442;2023-06-22T05:38:37;17.85;;;10.43;;
73515;SDS011;61763;51.416;5.442;2023-06-22T05:41:03;19.48;;;10.50;;
73515;SDS011;61763;51.416;5.442;2023-06-22T05:43:29;17.27;;;11.02;;
73515;SDS011;61763;51.416;5.442;2023-06-22T05:45:54;20.38;;;11.40;;
73515;SDS011;61763;51.416;5.442;2023-06-22T05:48:20;17.05;;;12.60;;
73515;SDS011;61763;51.416;5.442;2023-06-22T05:50:45;18.35;;;11.50;;
73515;SDS011;61763;51.416;5.442;2023-06-22T05:53:11;16.13;;;11.60;;
73515;SDS011;61763;51.416;5.442;2023-06-22T05:55:36;16.98;;;10.23;;
73515;SDS011;61763;51.416;5.442;2023-06-22T05:58:01;16.25;;;10.40;;
73515;SDS011;61763;51.416;5.442;2023-06-22T06:00:28;23.83;;;11.82;;
73515;SDS011;61763;51.416;5.442;2023-06-22T06:02:54;18.50;;;11.52;;
73515;SDS011;61763;51.416;5.442;2023-06-22T06:05:19;17.58;;;10.73;;
73515;SDS011;61763;51.416;5.442;2023-06-22T06:07:45;16.85;;;10.70;;
73515;SDS011;61763;51.416;5.442;2023-06-22T06:10:11;16.73;;;11.07;;
73515;SDS011;61763;51.416;5.442;2023-06-22T06:12:37;17.58;;;11.23;;
73515;SDS011;61763;51.416;5.442;2023-06-22T06:15:04;17.15;;;12.82;;
73515;SDS011;61763;51.416;5.442;2023-06-22T06:17:31;18.08;;;10.82;;
73515;SDS011;61763;51.416;5.442;2023-06-22T06:19:58;16.42;;;10.73;;
73515;SDS011;61763;51.416;5.442;2023-06-22T06:22:24;17.10;;;11.30;;
73515;SDS011;61763;51.416;5.442;2023-06-22T06:24:51;18.05;;;10.93;;
73515;SDS011;61763;51.416;5.442;2023-06-22T06:27:16;18.27;;;10.95;;
73515;SDS011;61763;51.416;5.442;2023-06-22T06:29:44;17.85;;;11.15;;
73515;SDS011;61763;51.416;5.442;2023-06-22T06:32:29;17.55;;;10.88;;
73515;SDS011;61763;51.416;5.442;2023-06-22T06:34:55;15.40;;;10.63;;
73515;SDS011;61763;51.416;5.442;2023-06-22T06:37:20;18.58;;;12.43;;
73515;SDS011;61763;51.416;5.442;2023-06-22T06:39:45;20.25;;;12.32;;
73515;SDS011;61763;51.416;5.442;2023-06-22T06:42:11;17.60;;;10.55;;
73515;SDS011;61763;51.416;5.442;2023-06-22T06:44:38;18.40;;;10.98;;
73515;SDS011;61763;51.416;5.442;2023-06-22T06:47:05;18.20;;;11.30;;
73515;SDS011;61763;51.416;5.442;2023-06-22T06:49:30;19.35;;;12.80;;
73515;SDS011;61763;51.416;5.442;2023-06-22T06:51:55;22.13;;;13.63;;
73515;SDS011;61763;51.416;5.442;2023-06-22T06:54:21;18.90;;;11.63;;
73515;SDS011;61763;51.416;5.442;2023-06-22T06:56:47;17.67;;;12.63;;
73515;SDS011;61763;51.416;5.442;2023-06-22T06:59:13;18.55;;;11.20;;
73515;SDS011;61763;51.416;5.442;2023-06-22T07:01:40;21.38;;;12.23;;
73515;SDS011;61763;51.416;5.442;2023-06-22T07:04:06;16.95;;;11.57;;
73515;SDS011;61763;51.416;5.442;2023-06-22T07:06:31;18.83;;;11.43;;
73515;SDS011;61763;51.416;5.442;2023-06-22T07:08:58;18.20;;;11.77;;
73515;SDS011;61763;51.416;5.442;2023-06-22T07:11:24;20.35;;;12.88;;
73515;SDS011;61763;51.416;5.442;2023-06-22T07:13:50;17.95;;;11.25;;
73515;SDS011;61763;51.416;5.442;2023-06-22T07:16:15;13.82;;;9.43;;
73515;SDS011;61763;51.416;5.442;2023-06-22T07:18:40;15.50;;;10.13;;
73515;SDS011;61763;51.416;5.442;2023-06-22T07:21:06;18.85;;;12.02;;
73515;SDS011;61763;51.416;5.442;2023-06-22T07:23:32;16.73;;;11.02;;
73515;SDS011;61763;51.416;5.442;2023-06-22T07:25:57;19.63;;;12.73;;
73515;SDS011;61763;51.416;5.442;2023-06-22T07:28:26;17.15;;;10.60;;
73515;SDS011;61763;51.416;5.442;2023-06-22T07:30:52;18.20;;;11.57;;
73515;SDS011;61763;51.416;5.442;2023-06-22T07:33:17;14.43;;;10.77;;
73515;SDS011;61763;51.416;5.442;2023-06-22T07:35:43;15.85;;;10.65;;
73515;SDS011;61763;51.416;5.442;2023-06-22T07:38:09;19.77;;;11.68;;
73515;SDS011;61763;51.416;5.442;2023-06-22T07:40:36;14.82;;;10.30;;
73515;SDS011;61763;51.416;5.442;2023-06-22T07:43:01;18.95;;;11.07;;
73515;SDS011;61763;51.416;5.442;2023-06-22T07:45:28;18.50;;;11.10;;
73515;SDS011;61763;51.416;5.442;2023-06-22T07:47:54;17.90;;;10.43;;
73515;SDS011;61763;51.416;5.442;2023-06-22T07:50:20;16.75;;;9.77;;
73515;SDS011;61763;51.416;5.442;2023-06-22T07:52:45;16.15;;;10.15;;
73515;SDS011;61763;51.416;5.442;2023-06-22T07:57:37;18.40;;;10.30;;
73515;SDS011;61763;51.416;5.442;2023-06-22T08:00:04;15.02;;;9.50;;
73515;SDS011;61763;51.416;5.442;2023-06-22T08:02:41;15.80;;;10.15;;
73515;SDS011;61763;51.416;5.442;2023-06-22T08:05:08;15.32;;;10.23;;
73515;SDS011;61763;51.416;5.442;2023-06-22T08:07:35;20.02;;;11.27;;
73515;SDS011;61763;51.416;5.442;2023-06-22T08:10:02;19.02;;;11.85;;
73515;SDS011;61763;51.416;5.442;2023-06-22T08:12:28;18.02;;;11.25;;
73515;SDS011;61763;51.416;5.442;2023-06-22T08:14:53;16.60;;;12.02;;
73515;SDS011;61763;51.416;5.442;2023-06-22T08:17:19;18.05;;;10.90;;
73515;SDS011;61763;51.416;5.442;2023-06-22T08:19:44;16.52;;;11.48;;
73515;SDS011;61763;51.416;5.442;2023-06-22T08:22:10;16.75;;;11.30;;
73515;SDS011;61763;51.416;5.442;2023-06-22T08:24:35;18.83;;;11.55;;
73515;SDS011;61763;51.416;5.442;2023-06-22T08:27:00;18.02;;;11.70;;
73515;SDS011;61763;51.416;5.442;2023-06-22T08:29:26;17.75;;;11.52;;
73515;SDS011;61763;51.416;5.442;2023-06-22T08:31:51;16.48;;;11.02;;
73515;SDS011;61763;51.416;5.442;2023-06-22T08:34:17;18.98;;;11.88;;
73515;SDS011;61763;51.416;5.442;2023-06-22T08:36:46;18.13;;;10.82;;
73515;SDS011;61763;51.416;5.442;2023-06-22T08:39:17;17.10;;;10.55;;
73515;SDS011;61763;51.416;5.442;2023-06-22T08:41:43;15.43;;;11.18;;
73515;SDS011;61763;51.416;5.442;2023-06-22T08:44:10;19.55;;;10.90;;
73515;SDS011;61763;51.416;5.442;2023-06-22T08:46:35;16.08;;;10.90;;
73515;SDS011;61763;51.416;5.442;2023-06-22T08:49:01;18.58;;;12.07;;
73515;SDS011;61763;51.416;5.442;2023-06-22T08:51:27;17.65;;;11.93;;
73515;SDS011;61763;51.416;5.442;2023-06-22T08:53:52;18.42;;;11.27;;
73515;SDS011;61763;51.416;5.442;2023-06-22T08:56:18;16.17;;;11.45;;
73515;SDS011;61763;51.416;5.442;2023-06-22T08:58:44;19.42;;;11.88;;
73515;SDS011;61763;51.416;5.442;2023-06-22T09:01:09;17.95;;;13.18;;
73515;SDS011;61763;51.416;5.442;2023-06-22T09:03:36;19.23;;;12.80;;
73515;SDS011;61763;51.416;5.442;2023-06-22T09:06:02;19.67;;;11.05;;
73515;SDS011;61763;51.416;5.442;2023-06-22T09:08:28;18.42;;;11.95;;
73515;SDS011;61763;51.416;5.442;2023-06-22T09:10:53;20.58;;;11.35;;
73515;SDS011;61763;51.416;5.442;2023-06-22T09:13:19;18.52;;;11.65;;
73515;SDS011;61763;51.416;5.442;2023-06-22T09:15:44;17.77;;;11.77;;
73515;SDS011;61763;51.416;5.442;2023-06-22T09:18:10;15.15;;;10.95;;
73515;SDS011;61763;51.416;5.442;2023-06-22T09:20:36;16.70;;;10.45;;
73515;SDS011;61763;51.416;5.442;2023-06-22T09:23:01;17.30;;;10.50;;
73515;SDS011;61763;51.416;5.442;2023-06-22T09:25:27;17.85;;;11.20;;
73515;SDS011;61763;51.416;5.442;2023-06-22T09:27:52;17.02;;;10.77;;
73515;SDS011;61763;51.416;5.442;2023-06-22T09:30:18;14.82;;;10.73;;
73515;SDS011;61763;51.416;5.442;2023-06-22T09:32:44;18.20;;;11.07;;
73515;SDS011;61763;51.416;5.442;2023-06-22T09:35:09;15.38;;;11.00;;
73515;SDS011;61763;51.416;5.442;2023-06-22T09:37:35;14.32;;;9.88;;
73515;SDS011;61763;51.416;5.442;2023-06-22T09:40:01;17.73;;;10.90;;
73515;SDS011;61763;51.416;5.442;2023-06-22T09:42:30;16.98;;;11.45;;
73515;SDS011;61763;51.416;5.442;2023-06-22T09:44:56;18.83;;;11.20;;
73515;SDS011;61763;51.416;5.442;2023-06-22T09:47:21;17.08;;;10.40;;
73515;SDS011;61763;51.416;5.442;2023-06-22T09:49:46;15.68;;;10.75;;
73515;SDS011;61763;51.416;5.442;2023-06-22T09:52:12;16.15;;;11.13;;
73515;SDS011;61763;51.416;5.442;2023-06-22T09:54:37;15.63;;;10.70;;
73515;SDS011;61763;51.416;5.442;2023-06-22T09:57:03;18.05;;;10.55;;
73515;SDS011;61763;51.416;5.442;2023-06-22T09:59:29;15.93;;;10.02;;
73515;SDS011;61763;51.416;5.442;2023-06-22T10:01:55;19.40;;;11.10;;
73515;SDS011;61763;51.416;5.442;2023-06-22T10:04:20;15.35;;;9.40;;
73515;SDS011;61763;51.416;5.442;2023-06-22T10:06:45;22.52;;;11.45;;
73515;SDS011;61763;51.416;5.442;2023-06-22T10:09:11;16.40;;;11.10;;
73515;SDS011;61763;51.416;5.442;2023-06-22T10:11:36;17.17;;;10.57;;
73515;SDS011;61763;51.416;5.442;2023-06-22T10:14:03;15.98;;;11.05;;
73515;SDS011;61763;51.416;5.442;2023-06-22T10:16:32;17.05;;;10.73;;
73515;SDS011;61763;51.416;5.442;2023-06-22T10:18:57;15.00;;;10.27;;
73515;SDS011;61763;51.416;5.442;2023-06-22T10:21:23;17.00;;;9.10;;
73515;SDS011;61763;51.416;5.442;2023-06-22T10:23:48;17.10;;;10.40;;
73515;SDS011;61763;51.416;5.442;2023-06-22T10:26:14;15.82;;;10.88;;
73515;SDS011;61763;51.416;5.442;2023-06-22T10:28:39;14.90;;;10.55;;
73515;SDS011;61763;51.416;5.442;2023-06-22T10:31:04;15.73;;;11.18;;
73515;SDS011;61763;51.416;5.442;2023-06-22T10:33:30;14.93;;;9.88;;
73515;SDS011;61763;51.416;5.442;2023-06-22T10:35:55;17.23;;;10.13;;
73515;SDS011;61763;51.416;5.442;2023-06-22T10:38:21;19.42;;;11.50;;
73515;SDS011;61763;51.416;5.442;2023-06-22T10:40:46;17.98;;;12.00;;
73515;SDS011;61763;51.416;5.442;2023-06-22T10:43:11;14.95;;;10.35;;
73515;SDS011;61763;51.416;5.442;2023-06-22T10:45:37;20.25;;;14.02;;
73515;SDS011;61763;51.416;5.442;2023-06-22T10:48:03;20.85;;;13.77;;
73515;SDS011;61763;51.416;5.442;2023-06-22T10:50:29;21.83;;;14.65;;
73515;SDS011;61763;51.416;5.442;2023-06-22T10:52:55;22.75;;;15.10;;
73515;SDS011;61763;51.416;5.442;2023-06-22T10:55:20;26.65;;;15.55;;
73515;SDS011;61763;51.416;5.442;2023-06-22T10:57:46;27.40;;;16.25;;
73515;SDS011;61763;51.416;5.442;2023-06-22T11:00:13;26.52;;;16.35;;
73515;SDS011;61763;51.416;5.442;2023-06-22T11:02:40;25.17;;;17.27;;
73515;SDS011;61763;51.416;5.442;2023-06-22T11:05:05;31.35;;;18.35;;
73515;SDS011;61763;51.416;5.442;2023-06-22T11:07:31;34.47;;;19.45;;
73515;SDS011;61763;51.416;5.442;2023-06-22T11:09:58;30.83;;;19.83;;
73515;SDS011;61763;51.416;5.442;2023-06-22T11:12:23;32.08;;;21.35;;
73515;SDS011;61763;51.416;5.442;2023-06-22T11:14:49;32.10;;;20.20;;
73515;SDS011;61763;51.416;5.442;2023-06-22T11:17:16;40.45;;;21.25;;
73515;SDS011;61763;51.416;5.442;2023-06-22T11:19:43;39.80;;;23.15;;
73515;SDS011;61763;51.416;5.442;2023-06-22T11:22:09;45.08;;;24.65;;
73515;SDS011;61763;51.416;5.442;2023-06-22T11:24:35;42.60;;;24.77;;
73515;SDS011;61763;51.416;5.442;2023-06-22T11:27:00;47.38;;;25.33;;
73515;SDS011;61763;51.416;5.442;2023-06-22T11:29:25;41.03;;;23.90;;
73515;SDS011;61763;51.416;5.442;2023-06-22T11:31:51;42.40;;;25.02;;
73515;SDS011;61763;51.416;5.442;2023-06-22T11:34:16;44.00;;;26.25;;
73515;SDS011;61763;51.416;5.442;2023-06-22T11:36:42;47.35;;;27.48;;
73515;SDS011;61763;51.416;5.442;2023-06-22T11:39:09;43.53;;;25.95;;
73515;SDS011;61763;51.416;5.442;2023-06-22T11:41:34;51.67;;;28.35;;
73515;SDS011;61763;51.416;5.442;2023-06-22T11:44:00;50.15;;;27.70;;
73515;SDS011;61763;51.416;5.442;2023-06-22T11:46:25;49.78;;;27.92;;
73515;SDS011;61763;51.416;5.442;2023-06-22T11:48:50;57.42;;;30.10;;
73515;SDS011;61763;51.416;5.442;2023-06-22T11:51:16;56.65;;;29.48;;
73515;SDS011;61763;51.416;5.442;2023-06-22T11:53:41;58.17;;;30.45;;
73515;SDS011;61763;51.416;5.442;2023-06-22T11:56:07;57.38;;;30.20;;
73515;SDS011;61763;51.416;5.442;2023-06-22T11:58:32;51.65;;;29.58;;
73515;SDS011;61763;51.416;5.442;2023-06-22T12:00:58;54.00;;;29.17;;
73515;SDS011;61763;51.416;5.442;2023-06-22T12:03:23;60.65;;;32.22;;
73515;SDS011;61763;51.416;5.442;2023-06-22T12:05:50;47.78;;;28.77;;
73515;SDS011;61763;51.416;5.442;2023-06-22T12:08:19;44.40;;;25.75;;
73515;SDS011;61763;51.416;5.442;2023-06-22T12:10:45;46.85;;;28.75;;
73515;SDS011;61763;51.416;5.442;2023-06-22T12:13:10;41.17;;;26.08;;
73515;SDS011;61763;51.416;5.442;2023-06-22T12:15:35;45.70;;;27.30;;
73515;SDS011;61763;51.416;5.442;2023-06-22T12:18:01;39.67;;;24.63;;
73515;SDS011;61763;51.416;5.442;2023-06-22T12:20:26;40.50;;;25.13;;
73515;SDS011;61763;51.416;5.442;2023-06-22T12:22:52;46.58;;;26.70;;
73515;SDS011;61763;51.416;5.442;2023-06-22T12:25:19;44.08;;;26.45;;
73515;SDS011;61763;51.416;5.442;2023-06-22T12:27:44;46.83;;;25.60;;
73515;SDS011;61763;51.416;5.442;2023-06-22T12:30:09;52.28;;;28.40;;
73515;SDS011;61763;51.416;5.442;2023-06-22T12:32:35;44.00;;;27.30;;
73515;SDS011;61763;51.416;5.442;2023-06-22T12:35:00;49.88;;;28.02;;
73515;SDS011;61763;51.416;5.442;2023-06-22T12:37:25;44.22;;;26.80;;
73515;SDS011;61763;51.416;5.442;2023-06-22T12:39:51;43.47;;;28.30;;
73515;SDS011;61763;51.416;5.442;2023-06-22T12:42:16;44.97;;;26.23;;
73515;SDS011;61763;51.416;5.442;2023-06-22T12:44:42;39.45;;;23.13;;
73515;SDS011;61763;51.416;5.442;2023-06-22T12:47:08;41.95;;;26.38;;
73515;SDS011;61763;51.416;5.442;2023-06-22T12:49:34;45.47;;;27.35;;
73515;SDS011;61763;51.416;5.442;2023-06-22T12:52:00;42.28;;;26.75;;
73515;SDS011;61763;51.416;5.442;2023-06-22T12:54:26;37.67;;;24.77;;
73515;SDS011;61763;51.416;5.442;2023-06-22T12:56:51;44.22;;;25.80;;
73515;SDS011;61763;51.416;5.442;2023-06-22T12:59:17;36.15;;;24.30;;
73515;SDS011;61763;51.416;5.442;2023-06-22T13:01:42;39.72;;;24.95;;
73515;SDS011;61763;51.416;5.442;2023-06-22T13:04:11;35.53;;;21.27;;
73515;SDS011;61763;51.416;5.442;2023-06-22T13:06:39;35.35;;;23.40;;
73515;SDS011;61763;51.416;5.442;2023-06-22T13:09:09;33.42;;;21.73;;
73515;SDS011;61763;51.416;5.442;2023-06-22T13:11:35;35.75;;;22.75;;
73515;SDS011;61763;51.416;5.442;2023-06-22T13:14:00;39.22;;;24.10;;
73515;SDS011;61763;51.416;5.442;2023-06-22T13:16:26;39.92;;;24.30;;
73515;SDS011;61763;51.416;5.442;2023-06-22T13:18:51;42.42;;;25.80;;
73515;SDS011;61763;51.416;5.442;2023-06-22T13:21:16;40.80;;;26.17;;
73515;SDS011;61763;51.416;5.442;2023-06-22T13:23:42;39.72;;;24.05;;
73515;SDS011;61763;51.416;5.442;2023-06-22T13:26:07;39.60;;;23.58;;
73515;SDS011;61763;51.416;5.442;2023-06-22T13:28:32;36.90;;;23.95;;
73515;SDS011;61763;51.416;5.442;2023-06-22T13:30:58;36.45;;;22.92;;
73515;SDS011;61763;51.416;5.442;2023-06-22T13:33:23;36.45;;;22.85;;
73515;SDS011;61763;51.416;5.442;2023-06-22T13:35:48;37.35;;;24.77;;
73515;SDS011;61763;51.416;5.442;2023-06-22T13:38:14;38.05;;;23.80;;
73515;SDS011;61763;51.416;5.442;2023-06-22T13:40:39;33.28;;;20.92;;
73515;SDS011;61763;51.416;5.442;2023-06-22T13:43:05;31.25;;;21.00;;
73515;SDS011;61763;51.416;5.442;2023-06-22T13:45:30;33.58;;;22.58;;
73515;SDS011;61763;51.416;5.442;2023-06-22T13:47:56;36.53;;;22.83;;
73515;SDS011;61763;51.416;5.442;2023-06-22T13:50:21;32.53;;;21.45;;
73515;SDS011;61763;51.416;5.442;2023-06-22T13:52:47;35.30;;;22.88;;
73515;SDS011;61763;51.416;5.442;2023-06-22T13:55:13;33.25;;;20.23;;
73515;SDS011;61763;51.416;5.442;2023-06-22T13:57:39;34.17;;;22.10;;
73515;SDS011;61763;51.416;5.442;2023-06-22T14:00:05;35.50;;;21.45;;
73515;SDS011;61763;51.416;5.442;2023-06-22T14:02:32;33.28;;;22.55;;
73515;SDS011;61763;51.416;5.442;2023-06-22T14:04:57;31.85;;;20.95;;
73515;SDS011;61763;51.416;5.442;2023-06-22T14:07:22;36.42;;;24.65;;
73515;SDS011;61763;51.416;5.442;2023-06-22T14:09:49;39.65;;;24.42;;
73515;SDS011;61763;51.416;5.442;2023-06-22T14:12:14;35.60;;;21.90;;
73515;SDS011;61763;51.416;5.442;2023-06-22T14:14:40;37.50;;;23.42;;
73515;SDS011;61763;51.416;5.442;2023-06-22T14:17:06;36.10;;;25.17;;
73515;SDS011;61763;51.416;5.442;2023-06-22T14:19:31;42.58;;;25.40;;
73515;SDS011;61763;51.416;5.442;2023-06-22T14:21:57;42.38;;;25.38;;
73515;SDS011;61763;51.416;5.442;2023-06-22T14:24:22;37.65;;;23.90;;
73515;SDS011;61763;51.416;5.442;2023-06-22T14:29:15;41.33;;;24.87;;